sensor_id;sensor_type;location;lat;lon;timestamp;P1;durP1;ratioP1;P2;durP2;ratioP2
51148;SDS011;37210;50.058;8.688;2023-04-07T00:01:11;13.93;;;12.52;;
51148;SDS011;37210;50.058;8.688;2023-04-07T00:03:38;14.95;;;13.05;;
51148;SDS011;37210;50.058;8.688;2023-04-07T00:06:06;13.98;;;12.65;;
51148;SDS011;37210;50.058;8.688;2023-04-07T00:08:35;14.82;;;13.10;;
51148;SDS011;37210;50.058;8.688;2023-04-07T00:11:03;13.98;;;12.48;;
51148;SDS011;37210;50.058;8.688;2023-04-07T00:13:31;14.07;;;12.70;;
51148;SDS011;37210;50.058;8.688;2023-04-07T00:15:58;13.38;;;12.07;;
51148;SDS011;37210;50.058;8.688;2023-04-07T00:18:26;14.32;;;12.95;;
51148;SDS011;37210;50.058;8.688;2023-04-07T00:20:53;13.85;;;12.40;;
51148;SDS011;37210;50.058;8.688;2023-04-07T00:23:21;13.98;;;12.57;;
51148;SDS011;37210;50.058;8.688;2023-04-07T00:25:50;13.15;;;11.98;;
51148;SDS011;37210;50.058;8.688;2023-04-07T00:28:18;13.68;;;12.27;;
51148;SDS011;37210;50.058;8.688;2023-04-07T00:30:45;13.70;;;12.38;;
51148;SDS011;37210;50.058;8.688;2023-04-07T00:33:13;14.07;;;12.68;;
51148;SDS011;37210;50.058;8.688;2023-04-07T00:35:40;14.75;;;12.75;;
51148;SDS011;37210;50.058;8.688;2023-04-07T00:38:08;14.23;;;12.82;;
51148;SDS011;37210;50.058;8.688;2023-04-07T00:40:35;13.15;;;11.98;;
51148;SDS011;37210;50.058;8.688;2023-04-07T00:43:04;13.98;;;12.55;;
51148;SDS011;37210;50.058;8.688;2023-04-07T00:45:31;14.13;;;12.70;;
51148;SDS011;37210;50.058;8.688;2023-04-07T00:47:59;14.38;;;12.82;;
51148;SDS011;37210;50.058;8.688;2023-04-07T00:50:27;14.65;;;13.25;;
51148;SDS011;37210;50.058;8.688;2023-04-07T00:52:54;13.80;;;12.38;;
51148;SDS011;37210;50.058;8.688;2023-04-07T00:55:22;14.48;;;13.00;;
51148;SDS011;37210;50.058;8.688;2023-04-07T00:57:50;14.05;;;12.65;;
51148;SDS011;37210;50.058;8.688;2023-04-07T01:00:19;13.23;;;11.80;;
51148;SDS011;37210;50.058;8.688;2023-04-07T01:02:51;14.88;;;12.35;;
51148;SDS011;37210;50.058;8.688;2023-04-07T01:05:28;15.18;;;13.65;;
51148;SDS011;37210;50.058;8.688;2023-04-07T01:08:07;13.13;;;11.80;;
51148;SDS011;37210;50.058;8.688;2023-04-07T01:10:45;14.93;;;13.18;;
51148;SDS011;37210;50.058;8.688;2023-04-07T01:13:21;13.15;;;11.98;;
51148;SDS011;37210;50.058;8.688;2023-04-07T01:16:03;13.00;;;11.77;;
51148;SDS011;37210;50.058;8.688;2023-04-07T01:18:42;14.25;;;12.80;;
51148;SDS011;37210;50.058;8.688;2023-04-07T01:21:14;14.07;;;12.57;;
51148;SDS011;37210;50.058;8.688;2023-04-07T01:23:48;14.35;;;12.85;;
51148;SDS011;37210;50.058;8.688;2023-04-07T01:26:30;14.20;;;12.70;;
51148;SDS011;37210;50.058;8.688;2023-04-07T01:31:59;14.13;;;12.70;;
51148;SDS011;37210;50.058;8.688;2023-04-07T01:34:32;14.23;;;12.75;;
51148;SDS011;37210;50.058;8.688;2023-04-07T01:37:02;13.50;;;12.20;;
51148;SDS011;37210;50.058;8.688;2023-04-07T01:39:31;14.43;;;12.93;;
51148;SDS011;37210;50.058;8.688;2023-04-07T01:42:00;13.07;;;11.77;;
51148;SDS011;37210;50.058;8.688;2023-04-07T01:44:31;13.55;;;12.18;;
51148;SDS011;37210;50.058;8.688;2023-04-07T01:47:00;13.60;;;12.20;;
51148;SDS011;37210;50.058;8.688;2023-04-07T01:49:29;13.13;;;12.02;;
51148;SDS011;37210;50.058;8.688;2023-04-07T01:51:57;12.88;;;11.57;;
51148;SDS011;37210;50.058;8.688;2023-04-07T01:54:26;14.15;;;12.57;;
51148;SDS011;37210;50.058;8.688;2023-04-07T01:56:55;12.85;;;11.68;;
51148;SDS011;37210;50.058;8.688;2023-04-07T01:59:22;12.35;;;11.20;;
51148;SDS011;37210;50.058;8.688;2023-04-07T02:01:51;13.32;;;12.02;;
51148;SDS011;37210;50.058;8.688;2023-04-07T02:04:20;13.23;;;11.93;;
51148;SDS011;37210;50.058;8.688;2023-04-07T02:06:55;12.50;;;11.32;;
51148;SDS011;37210;50.058;8.688;2023-04-07T02:09:39;12.02;;;10.93;;
51148;SDS011;37210;50.058;8.688;2023-04-07T02:12:10;12.32;;;11.13;;
51148;SDS011;37210;50.058;8.688;2023-04-07T02:14:50;12.70;;;11.43;;
51148;SDS011;37210;50.058;8.688;2023-04-07T02:17:20;12.65;;;10.75;;
51148;SDS011;37210;50.058;8.688;2023-04-07T02:19:50;11.50;;;10.40;;
51148;SDS011;37210;50.058;8.688;2023-04-07T02:22:19;13.80;;;12.38;;
51148;SDS011;37210;50.058;8.688;2023-04-07T02:24:46;12.45;;;11.15;;
51148;SDS011;37210;50.058;8.688;2023-04-07T02:27:14;13.32;;;12.02;;
51148;SDS011;37210;50.058;8.688;2023-04-07T02:29:41;12.68;;;11.38;;
51148;SDS011;37210;50.058;8.688;2023-04-07T02:32:08;12.02;;;10.93;;
51148;SDS011;37210;50.058;8.688;2023-04-07T02:34:37;11.45;;;10.45;;
51148;SDS011;37210;50.058;8.688;2023-04-07T02:37:06;12.70;;;10.73;;
51148;SDS011;37210;50.058;8.688;2023-04-07T02:39:33;12.15;;;11.05;;
51148;SDS011;37210;50.058;8.688;2023-04-07T02:42:00;12.68;;;11.48;;
51148;SDS011;37210;50.058;8.688;2023-04-07T02:44:28;12.15;;;10.95;;
51148;SDS011;37210;50.058;8.688;2023-04-07T02:46:56;14.50;;;10.98;;
51148;SDS011;37210;50.058;8.688;2023-04-07T02:49:23;13.23;;;11.85;;
51148;SDS011;37210;50.058;8.688;2023-04-07T02:51:52;12.13;;;10.95;;
51148;SDS011;37210;50.058;8.688;2023-04-07T02:54:19;12.20;;;11.00;;
51148;SDS011;37210;50.058;8.688;2023-04-07T02:56:46;12.20;;;11.10;;
51148;SDS011;37210;50.058;8.688;2023-04-07T02:59:14;11.75;;;10.63;;
51148;SDS011;37210;50.058;8.688;2023-04-07T03:01:42;12.00;;;10.80;;
51148;SDS011;37210;50.058;8.688;2023-04-07T03:04:10;11.32;;;10.18;;
51148;SDS011;37210;50.058;8.688;2023-04-07T03:06:37;10.57;;;9.52;;
51148;SDS011;37210;50.058;8.688;2023-04-07T03:09:15;11.68;;;10.57;;
51148;SDS011;37210;50.058;8.688;2023-04-07T03:11:43;12.30;;;11.07;;
51148;SDS011;37210;50.058;8.688;2023-04-07T03:14:10;12.20;;;10.93;;
51148;SDS011;37210;50.058;8.688;2023-04-07T03:16:45;12.25;;;11.07;;
51148;SDS011;37210;50.058;8.688;2023-04-07T03:19:13;11.85;;;10.65;;
51148;SDS011;37210;50.058;8.688;2023-04-07T03:21:49;12.02;;;10.88;;
51148;SDS011;37210;50.058;8.688;2023-04-07T03:24:18;12.55;;;11.35;;
51148;SDS011;37210;50.058;8.688;2023-04-07T03:26:46;11.82;;;10.65;;
51148;SDS011;37210;50.058;8.688;2023-04-07T03:29:20;12.02;;;10.93;;
51148;SDS011;37210;50.058;8.688;2023-04-07T03:31:47;12.55;;;11.20;;
51148;SDS011;37210;50.058;8.688;2023-04-07T03:34:19;12.68;;;11.55;;
51148;SDS011;37210;50.058;8.688;2023-04-07T03:36:46;11.55;;;10.55;;
51148;SDS011;37210;50.058;8.688;2023-04-07T03:39:14;11.93;;;10.82;;
51148;SDS011;37210;50.058;8.688;2023-04-07T03:41:43;12.73;;;11.40;;
51148;SDS011;37210;50.058;8.688;2023-04-07T03:44:11;12.40;;;11.18;;
51148;SDS011;37210;50.058;8.688;2023-04-07T03:46:39;13.20;;;11.98;;
51148;SDS011;37210;50.058;8.688;2023-04-07T03:49:07;13.18;;;11.88;;
51148;SDS011;37210;50.058;8.688;2023-04-07T03:51:34;12.32;;;11.13;;
51148;SDS011;37210;50.058;8.688;2023-04-07T03:54:05;12.02;;;10.82;;
51148;SDS011;37210;50.058;8.688;2023-04-07T03:56:40;12.38;;;11.10;;
51148;SDS011;37210;50.058;8.688;2023-04-07T03:59:09;11.00;;;9.95;;
51148;SDS011;37210;50.058;8.688;2023-04-07T04:01:45;11.75;;;10.52;;
51148;SDS011;37210;50.058;8.688;2023-04-07T04:04:15;12.55;;;11.35;;
51148;SDS011;37210;50.058;8.688;2023-04-07T04:06:42;12.23;;;11.02;;
51148;SDS011;37210;50.058;8.688;2023-04-07T04:09:30;12.13;;;10.93;;
51148;SDS011;37210;50.058;8.688;2023-04-07T04:11:58;12.05;;;10.85;;
51148;SDS011;37210;50.058;8.688;2023-04-07T04:14:27;12.40;;;11.20;;
51148;SDS011;37210;50.058;8.688;2023-04-07T04:16:58;10.48;;;9.52;;
51148;SDS011;37210;50.058;8.688;2023-04-07T04:19:30;11.10;;;9.95;;
51148;SDS011;37210;50.058;8.688;2023-04-07T04:22:01;11.95;;;10.82;;
51148;SDS011;37210;50.058;8.688;2023-04-07T04:24:34;11.82;;;10.73;;
51148;SDS011;37210;50.058;8.688;2023-04-07T04:27:03;11.60;;;10.40;;
51148;SDS011;37210;50.058;8.688;2023-04-07T04:29:33;11.43;;;10.32;;
51148;SDS011;37210;50.058;8.688;2023-04-07T04:32:02;11.15;;;9.95;;
51148;SDS011;37210;50.058;8.688;2023-04-07T04:34:30;11.57;;;10.48;;
51148;SDS011;37210;50.058;8.688;2023-04-07T04:36:58;12.68;;;10.32;;
51148;SDS011;37210;50.058;8.688;2023-04-07T04:39:26;11.63;;;10.43;;
51148;SDS011;37210;50.058;8.688;2023-04-07T04:41:53;11.32;;;10.20;;
51148;SDS011;37210;50.058;8.688;2023-04-07T04:44:24;11.05;;;9.95;;
51148;SDS011;37210;50.058;8.688;2023-04-07T04:46:52;11.13;;;9.85;;
51148;SDS011;37210;50.058;8.688;2023-04-07T04:49:20;11.75;;;10.63;;
51148;SDS011;37210;50.058;8.688;2023-04-07T04:51:50;12.20;;;10.32;;
51148;SDS011;37210;50.058;8.688;2023-04-07T04:54:17;11.77;;;10.73;;
51148;SDS011;37210;50.058;8.688;2023-04-07T04:56:45;10.90;;;9.80;;
51148;SDS011;37210;50.058;8.688;2023-04-07T04:59:13;11.57;;;10.38;;
51148;SDS011;37210;50.058;8.688;2023-04-07T05:02:02;10.02;;;9.05;;
51148;SDS011;37210;50.058;8.688;2023-04-07T05:04:31;11.25;;;10.05;;
51148;SDS011;37210;50.058;8.688;2023-04-07T05:07:14;11.40;;;10.20;;
51148;SDS011;37210;50.058;8.688;2023-04-07T05:09:41;10.88;;;9.82;;
51148;SDS011;37210;50.058;8.688;2023-04-07T05:12:08;11.80;;;10.60;;
51148;SDS011;37210;50.058;8.688;2023-04-07T05:14:41;12.30;;;10.93;;
51148;SDS011;37210;50.058;8.688;2023-04-07T05:17:10;11.10;;;10.07;;
51148;SDS011;37210;50.058;8.688;2023-04-07T05:19:38;10.85;;;9.75;;
51148;SDS011;37210;50.058;8.688;2023-04-07T05:22:19;12.50;;;10.38;;
51148;SDS011;37210;50.058;8.688;2023-04-07T05:24:48;10.85;;;9.85;;
51148;SDS011;37210;50.058;8.688;2023-04-07T05:27:15;13.98;;;10.15;;
51148;SDS011;37210;50.058;8.688;2023-04-07T05:29:45;11.38;;;10.15;;
51148;SDS011;37210;50.058;8.688;2023-04-07T05:32:23;13.23;;;10.57;;
51148;SDS011;37210;50.058;8.688;2023-04-07T05:34:51;10.95;;;9.85;;
51148;SDS011;37210;50.058;8.688;2023-04-07T05:37:20;12.65;;;11.38;;
51148;SDS011;37210;50.058;8.688;2023-04-07T05:39:47;10.93;;;9.75;;
51148;SDS011;37210;50.058;8.688;2023-04-07T05:42:15;11.57;;;10.38;;
51148;SDS011;37210;50.058;8.688;2023-04-07T05:44:47;10.73;;;9.73;;
51148;SDS011;37210;50.058;8.688;2023-04-07T05:47:16;11.07;;;9.75;;
51148;SDS011;37210;50.058;8.688;2023-04-07T05:49:45;11.38;;;9.85;;
51148;SDS011;37210;50.058;8.688;2023-04-07T05:52:13;10.77;;;9.77;;
51148;SDS011;37210;50.058;8.688;2023-04-07T05:54:44;10.63;;;9.73;;
51148;SDS011;37210;50.058;8.688;2023-04-07T05:57:14;10.65;;;9.55;;
51148;SDS011;37210;50.058;8.688;2023-04-07T05:59:44;11.13;;;10.07;;
51148;SDS011;37210;50.058;8.688;2023-04-07T06:02:12;10.73;;;9.73;;
51148;SDS011;37210;50.058;8.688;2023-04-07T06:04:39;12.10;;;10.82;;
51148;SDS011;37210;50.058;8.688;2023-04-07T06:07:11;11.77;;;10.68;;
51148;SDS011;37210;50.058;8.688;2023-04-07T06:09:41;10.85;;;9.65;;
51148;SDS011;37210;50.058;8.688;2023-04-07T06:12:09;10.20;;;9.27;;
51148;SDS011;37210;50.058;8.688;2023-04-07T06:14:37;11.43;;;10.32;;
51148;SDS011;37210;50.058;8.688;2023-04-07T06:17:04;11.98;;;10.82;;
51148;SDS011;37210;50.058;8.688;2023-04-07T06:19:32;11.85;;;10.70;;
51148;SDS011;37210;50.058;8.688;2023-04-07T06:22:00;11.88;;;10.68;;
51148;SDS011;37210;50.058;8.688;2023-04-07T06:24:28;11.52;;;10.43;;
51148;SDS011;37210;50.058;8.688;2023-04-07T06:26:56;12.30;;;11.07;;
51148;SDS011;37210;50.058;8.688;2023-04-07T06:29:23;13.70;;;10.65;;
51148;SDS011;37210;50.058;8.688;2023-04-07T06:31:52;12.27;;;11.10;;
51148;SDS011;37210;50.058;8.688;2023-04-07T06:34:19;12.90;;;11.60;;
51148;SDS011;37210;50.058;8.688;2023-04-07T06:36:46;12.75;;;11.48;;
51148;SDS011;37210;50.058;8.688;2023-04-07T06:39:14;11.95;;;10.75;;
51148;SDS011;37210;50.058;8.688;2023-04-07T06:41:43;12.05;;;10.95;;
51148;SDS011;37210;50.058;8.688;2023-04-07T06:44:11;12.20;;;10.90;;
51148;SDS011;37210;50.058;8.688;2023-04-07T06:46:39;12.15;;;11.05;;
51148;SDS011;37210;50.058;8.688;2023-04-07T06:49:07;11.70;;;10.50;;
51148;SDS011;37210;50.058;8.688;2023-04-07T06:51:34;12.70;;;11.00;;
51148;SDS011;37210;50.058;8.688;2023-04-07T06:54:02;14.35;;;11.68;;
51148;SDS011;37210;50.058;8.688;2023-04-07T06:56:30;11.82;;;10.63;;
51148;SDS011;37210;50.058;8.688;2023-04-07T06:58:59;12.32;;;11.13;;
51148;SDS011;37210;50.058;8.688;2023-04-07T07:01:26;11.60;;;10.50;;
51148;SDS011;37210;50.058;8.688;2023-04-07T07:03:53;11.55;;;10.38;;
51148;SDS011;37210;50.058;8.688;2023-04-07T07:06:21;13.68;;;10.85;;
51148;SDS011;37210;50.058;8.688;2023-04-07T07:08:48;12.05;;;10.90;;
51148;SDS011;37210;50.058;8.688;2023-04-07T07:11:16;12.15;;;10.80;;
51148;SDS011;37210;50.058;8.688;2023-04-07T07:13:43;12.75;;;11.40;;
51148;SDS011;37210;50.058;8.688;2023-04-07T07:16:12;11.98;;;10.77;;
51148;SDS011;37210;50.058;8.688;2023-04-07T07:18:39;12.32;;;10.90;;
51148;SDS011;37210;50.058;8.688;2023-04-07T07:21:07;12.32;;;11.05;;
51148;SDS011;37210;50.058;8.688;2023-04-07T07:23:34;12.23;;;11.02;;
51148;SDS011;37210;50.058;8.688;2023-04-07T07:26:02;13.73;;;11.38;;
51148;SDS011;37210;50.058;8.688;2023-04-07T07:28:30;11.38;;;10.23;;
51148;SDS011;37210;50.058;8.688;2023-04-07T07:30:57;12.43;;;11.13;;
51148;SDS011;37210;50.058;8.688;2023-04-07T07:33:26;11.90;;;10.75;;
51148;SDS011;37210;50.058;8.688;2023-04-07T07:35:54;12.88;;;11.18;;
51148;SDS011;37210;50.058;8.688;2023-04-07T07:38:21;12.55;;;11.38;;
51148;SDS011;37210;50.058;8.688;2023-04-07T07:40:48;12.88;;;11.48;;
51148;SDS011;37210;50.058;8.688;2023-04-07T07:43:16;12.38;;;11.25;;
51148;SDS011;37210;50.058;8.688;2023-04-07T07:45:43;12.00;;;10.75;;
51148;SDS011;37210;50.058;8.688;2023-04-07T07:48:11;12.52;;;11.18;;
51148;SDS011;37210;50.058;8.688;2023-04-07T07:50:40;14.23;;;12.82;;
51148;SDS011;37210;50.058;8.688;2023-04-07T07:53:09;15.43;;;13.82;;
51148;SDS011;37210;50.058;8.688;2023-04-07T07:55:36;27.73;;;24.83;;
51148;SDS011;37210;50.058;8.688;2023-04-07T07:58:04;16.20;;;14.57;;
51148;SDS011;37210;50.058;8.688;2023-04-07T08:00:31;12.95;;;11.65;;
51148;SDS011;37210;50.058;8.688;2023-04-07T08:02:59;12.55;;;11.32;;
51148;SDS011;37210;50.058;8.688;2023-04-07T08:05:26;12.85;;;11.55;;
51148;SDS011;37210;50.058;8.688;2023-04-07T08:07:55;12.95;;;11.63;;
51148;SDS011;37210;50.058;8.688;2023-04-07T08:10:22;12.88;;;11.60;;
51148;SDS011;37210;50.058;8.688;2023-04-07T08:12:50;13.50;;;12.10;;
51148;SDS011;37210;50.058;8.688;2023-04-07T08:15:17;13.35;;;11.93;;
51148;SDS011;37210;50.058;8.688;2023-04-07T08:17:45;13.23;;;11.88;;
51148;SDS011;37210;50.058;8.688;2023-04-07T08:20:12;12.85;;;11.55;;
51148;SDS011;37210;50.058;8.688;2023-04-07T08:22:41;13.75;;;11.75;;
51148;SDS011;37210;50.058;8.688;2023-04-07T08:25:10;15.48;;;11.93;;
51148;SDS011;37210;50.058;8.688;2023-04-07T08:27:37;12.50;;;10.90;;
51148;SDS011;37210;50.058;8.688;2023-04-07T08:30:05;17.38;;;15.18;;
51148;SDS011;37210;50.058;8.688;2023-04-07T08:32:34;13.73;;;12.43;;
51148;SDS011;37210;50.058;8.688;2023-04-07T08:35:03;12.20;;;11.02;;
51148;SDS011;37210;50.058;8.688;2023-04-07T08:37:32;12.65;;;11.35;;
51148;SDS011;37210;50.058;8.688;2023-04-07T08:40:00;12.82;;;11.65;;
51148;SDS011;37210;50.058;8.688;2023-04-07T08:42:31;12.23;;;11.07;;
51148;SDS011;37210;50.058;8.688;2023-04-07T08:45:03;12.82;;;11.52;;
51148;SDS011;37210;50.058;8.688;2023-04-07T08:47:35;12.48;;;11.27;;
51148;SDS011;37210;50.058;8.688;2023-04-07T08:50:04;11.95;;;10.75;;
51148;SDS011;37210;50.058;8.688;2023-04-07T08:52:36;13.98;;;12.57;;
51148;SDS011;37210;50.058;8.688;2023-04-07T09:00:07;13.13;;;11.68;;
51148;SDS011;37210;50.058;8.688;2023-04-07T09:02:37;12.88;;;11.57;;
51148;SDS011;37210;50.058;8.688;2023-04-07T09:05:08;12.55;;;11.30;;
51148;SDS011;37210;50.058;8.688;2023-04-07T09:07:37;12.55;;;11.35;;
51148;SDS011;37210;50.058;8.688;2023-04-07T09:10:06;13.35;;;11.98;;
51148;SDS011;37210;50.058;8.688;2023-04-07T09:12:34;12.45;;;11.23;;
51148;SDS011;37210;50.058;8.688;2023-04-07T09:15:04;12.40;;;11.20;;
51148;SDS011;37210;50.058;8.688;2023-04-07T09:17:33;13.25;;;11.93;;
51148;SDS011;37210;50.058;8.688;2023-04-07T09:20:02;12.30;;;11.20;;
51148;SDS011;37210;50.058;8.688;2023-04-07T09:22:33;12.20;;;11.10;;
51148;SDS011;37210;50.058;8.688;2023-04-07T09:25:12;12.73;;;11.35;;
51148;SDS011;37210;50.058;8.688;2023-04-07T09:27:55;13.25;;;11.85;;
51148;SDS011;37210;50.058;8.688;2023-04-07T09:30:27;12.90;;;11.70;;
51148;SDS011;37210;50.058;8.688;2023-04-07T09:32:56;11.98;;;10.88;;
51148;SDS011;37210;50.058;8.688;2023-04-07T09:35:25;11.63;;;10.52;;
51148;SDS011;37210;50.058;8.688;2023-04-07T09:38:03;12.65;;;11.45;;
51148;SDS011;37210;50.058;8.688;2023-04-07T09:40:33;24.10;;;21.60;;
51148;SDS011;37210;50.058;8.688;2023-04-07T09:43:02;14.65;;;12.88;;
51148;SDS011;37210;50.058;8.688;2023-04-07T09:45:33;14.45;;;13.15;;
51148;SDS011;37210;50.058;8.688;2023-04-07T09:48:04;13.20;;;11.85;;
51148;SDS011;37210;50.058;8.688;2023-04-07T09:50:33;13.20;;;11.80;;
51148;SDS011;37210;50.058;8.688;2023-04-07T09:53:02;11.90;;;10.70;;
51148;SDS011;37210;50.058;8.688;2023-04-07T09:55:30;15.32;;;13.68;;
51148;SDS011;37210;50.058;8.688;2023-04-07T09:57:58;11.55;;;10.45;;
51148;SDS011;37210;50.058;8.688;2023-04-07T10:00:27;11.88;;;10.68;;
51148;SDS011;37210;50.058;8.688;2023-04-07T10:02:56;11.15;;;10.00;;
51148;SDS011;37210;50.058;8.688;2023-04-07T10:05:24;11.82;;;10.63;;
51148;SDS011;37210;50.058;8.688;2023-04-07T10:07:53;12.02;;;10.82;;
51148;SDS011;37210;50.058;8.688;2023-04-07T10:10:21;12.65;;;11.35;;
51148;SDS011;37210;50.058;8.688;2023-04-07T10:12:48;13.05;;;11.73;;
51148;SDS011;37210;50.058;8.688;2023-04-07T10:15:20;14.18;;;12.95;;
51148;SDS011;37210;50.058;8.688;2023-04-07T10:17:48;14.23;;;12.77;;
51148;SDS011;37210;50.058;8.688;2023-04-07T10:20:18;12.43;;;11.32;;
51148;SDS011;37210;50.058;8.688;2023-04-07T10:22:47;11.25;;;10.32;;
51148;SDS011;37210;50.058;8.688;2023-04-07T10:25:19;12.82;;;11.57;;
51148;SDS011;37210;50.058;8.688;2023-04-07T10:27:51;11.52;;;10.43;;
51148;SDS011;37210;50.058;8.688;2023-04-07T10:30:24;12.93;;;11.73;;
51148;SDS011;37210;50.058;8.688;2023-04-07T10:32:54;12.05;;;10.88;;
51148;SDS011;37210;50.058;8.688;2023-04-07T10:35:24;11.95;;;10.68;;
51148;SDS011;37210;50.058;8.688;2023-04-07T10:38:09;14.27;;;12.88;;
51148;SDS011;37210;50.058;8.688;2023-04-07T10:40:39;13.65;;;12.35;;
51148;SDS011;37210;50.058;8.688;2023-04-07T10:43:08;13.55;;;12.35;;
51148;SDS011;37210;50.058;8.688;2023-04-07T10:45:52;13.00;;;11.70;;
51148;SDS011;37210;50.058;8.688;2023-04-07T10:48:25;13.25;;;11.95;;
51148;SDS011;37210;50.058;8.688;2023-04-07T10:51:12;12.65;;;11.35;;
51148;SDS011;37210;50.058;8.688;2023-04-07T10:57:03;11.05;;;10.10;;
51148;SDS011;37210;50.058;8.688;2023-04-07T10:59:40;11.43;;;10.32;;
51148;SDS011;37210;50.058;8.688;2023-04-07T11:02:30;11.35;;;10.30;;
51148;SDS011;37210;50.058;8.688;2023-04-07T11:04:59;10.50;;;9.50;;
51148;SDS011;37210;50.058;8.688;2023-04-07T11:10:22;8.68;;;7.97;;
51148;SDS011;37210;50.058;8.688;2023-04-07T11:12:59;8.70;;;7.95;;
51148;SDS011;37210;50.058;8.688;2023-04-07T11:15:30;9.95;;;9.15;;
51148;SDS011;37210;50.058;8.688;2023-04-07T11:18:09;9.70;;;8.80;;
51148;SDS011;37210;50.058;8.688;2023-04-07T11:20:49;9.80;;;8.80;;
51148;SDS011;37210;50.058;8.688;2023-04-07T11:23:20;9.18;;;8.48;;
51148;SDS011;37210;50.058;8.688;2023-04-07T11:25:50;11.55;;;10.45;;
51148;SDS011;37210;50.058;8.688;2023-04-07T11:28:25;11.20;;;10.13;;
51148;SDS011;37210;50.058;8.688;2023-04-07T11:30:53;10.95;;;9.95;;
51148;SDS011;37210;50.058;8.688;2023-04-07T11:33:25;11.93;;;10.85;;
51148;SDS011;37210;50.058;8.688;2023-04-07T11:35:54;11.30;;;10.40;;
51148;SDS011;37210;50.058;8.688;2023-04-07T11:38:25;11.38;;;10.30;;
51148;SDS011;37210;50.058;8.688;2023-04-07T11:40:54;11.88;;;10.68;;
51148;SDS011;37210;50.058;8.688;2023-04-07T11:43:23;11.82;;;10.63;;
51148;SDS011;37210;50.058;8.688;2023-04-07T11:46:05;11.82;;;10.75;;
51148;SDS011;37210;50.058;8.688;2023-04-07T11:48:34;12.10;;;11.00;;
51148;SDS011;37210;50.058;8.688;2023-04-07T11:51:03;11.98;;;10.88;;
51148;SDS011;37210;50.058;8.688;2023-04-07T11:53:34;11.18;;;10.18;;
51148;SDS011;37210;50.058;8.688;2023-04-07T11:56:04;11.18;;;10.07;;
51148;SDS011;37210;50.058;8.688;2023-04-07T11:58:34;12.57;;;10.30;;
51148;SDS011;37210;50.058;8.688;2023-04-07T12:01:03;11.18;;;10.10;;
51148;SDS011;37210;50.058;8.688;2023-04-07T12:03:33;10.48;;;9.48;;
51148;SDS011;37210;50.058;8.688;2023-04-07T12:06:06;11.27;;;10.23;;
51148;SDS011;37210;50.058;8.688;2023-04-07T12:08:38;11.05;;;9.95;;
51148;SDS011;37210;50.058;8.688;2023-04-07T12:11:07;11.63;;;10.50;;
51148;SDS011;37210;50.058;8.688;2023-04-07T12:13:36;11.57;;;10.38;;
51148;SDS011;37210;50.058;8.688;2023-04-07T12:16:04;11.50;;;9.90;;
51148;SDS011;37210;50.058;8.688;2023-04-07T12:18:31;10.85;;;9.77;;
51148;SDS011;37210;50.058;8.688;2023-04-07T12:20:59;11.35;;;10.15;;
51148;SDS011;37210;50.058;8.688;2023-04-07T12:23:27;10.88;;;9.75;;
51148;SDS011;37210;50.058;8.688;2023-04-07T12:25:56;10.45;;;9.52;;
51148;SDS011;37210;50.058;8.688;2023-04-07T12:28:23;11.65;;;10.48;;
51148;SDS011;37210;50.058;8.688;2023-04-07T12:30:51;10.32;;;9.30;;
51148;SDS011;37210;50.058;8.688;2023-04-07T12:33:19;10.48;;;9.48;;
51148;SDS011;37210;50.058;8.688;2023-04-07T12:35:46;9.63;;;8.73;;
51148;SDS011;37210;50.058;8.688;2023-04-07T12:38:15;9.80;;;8.80;;
51148;SDS011;37210;50.058;8.688;2023-04-07T12:40:42;9.43;;;8.55;;
51148;SDS011;37210;50.058;8.688;2023-04-07T12:43:11;9.30;;;8.43;;
51148;SDS011;37210;50.058;8.688;2023-04-07T12:45:38;9.68;;;8.77;;
51148;SDS011;37210;50.058;8.688;2023-04-07T12:48:06;8.60;;;7.88;;
51148;SDS011;37210;50.058;8.688;2023-04-07T12:50:34;9.98;;;8.93;;
51148;SDS011;37210;50.058;8.688;2023-04-07T12:53:01;9.75;;;8.85;;
51148;SDS011;37210;50.058;8.688;2023-04-07T12:55:30;9.68;;;8.55;;
51148;SDS011;37210;50.058;8.688;2023-04-07T12:57:58;9.88;;;8.98;;
51148;SDS011;37210;50.058;8.688;2023-04-07T13:00:27;9.07;;;8.27;;
51148;SDS011;37210;50.058;8.688;2023-04-07T13:02:55;9.10;;;8.23;;
51148;SDS011;37210;50.058;8.688;2023-04-07T13:05:23;10.13;;;8.88;;
51148;SDS011;37210;50.058;8.688;2023-04-07T13:07:50;9.05;;;8.15;;
51148;SDS011;37210;50.058;8.688;2023-04-07T13:10:18;9.52;;;8.63;;
51148;SDS011;37210;50.058;8.688;2023-04-07T13:12:46;10.57;;;9.63;;
51148;SDS011;37210;50.058;8.688;2023-04-07T13:15:14;11.05;;;9.90;;
51148;SDS011;37210;50.058;8.688;2023-04-07T13:17:43;9.13;;;8.23;;
51148;SDS011;37210;50.058;8.688;2023-04-07T13:20:12;9.25;;;8.32;;
51148;SDS011;37210;50.058;8.688;2023-04-07T13:22:39;8.75;;;7.85;;
51148;SDS011;37210;50.058;8.688;2023-04-07T13:25:07;10.07;;;9.00;;
51148;SDS011;37210;50.058;8.688;2023-04-07T13:27:35;9.63;;;7.88;;
51148;SDS011;37210;50.058;8.688;2023-04-07T13:30:03;9.40;;;8.50;;
51148;SDS011;37210;50.058;8.688;2023-04-07T13:32:31;8.88;;;8.00;;
51148;SDS011;37210;50.058;8.688;2023-04-07T13:35:00;8.65;;;7.85;;
51148;SDS011;37210;50.058;8.688;2023-04-07T13:37:27;9.38;;;8.57;;
51148;SDS011;37210;50.058;8.688;2023-04-07T13:39:55;9.25;;;8.35;;
51148;SDS011;37210;50.058;8.688;2023-04-07T13:42:22;8.63;;;7.78;;
51148;SDS011;37210;50.058;8.688;2023-04-07T13:44:50;9.27;;;8.27;;
51148;SDS011;37210;50.058;8.688;2023-04-07T13:47:19;8.88;;;8.00;;
51148;SDS011;37210;50.058;8.688;2023-04-07T13:49:47;8.68;;;7.88;;
51148;SDS011;37210;50.058;8.688;2023-04-07T13:52:18;7.72;;;7.13;;
51148;SDS011;37210;50.058;8.688;2023-04-07T13:54:45;6.55;;;5.95;;
51148;SDS011;37210;50.058;8.688;2023-04-07T13:57:13;8.10;;;7.18;;
51148;SDS011;37210;50.058;8.688;2023-04-07T13:59:45;6.15;;;5.65;;
51148;SDS011;37210;50.058;8.688;2023-04-07T14:02:13;8.30;;;7.60;;
51148;SDS011;37210;50.058;8.688;2023-04-07T14:04:41;6.30;;;5.70;;
51148;SDS011;37210;50.058;8.688;2023-04-07T14:07:08;6.00;;;5.50;;
51148;SDS011;37210;50.058;8.688;2023-04-07T14:09:37;5.93;;;5.43;;
51148;SDS011;37210;50.058;8.688;2023-04-07T14:12:05;6.20;;;5.70;;
51148;SDS011;37210;50.058;8.688;2023-04-07T14:14:32;6.38;;;5.80;;
51148;SDS011;37210;50.058;8.688;2023-04-07T14:17:02;5.65;;;5.15;;
51148;SDS011;37210;50.058;8.688;2023-04-07T14:19:29;5.10;;;4.70;;
51148;SDS011;37210;50.058;8.688;2023-04-07T14:21:58;5.00;;;4.50;;
51148;SDS011;37210;50.058;8.688;2023-04-07T14:24:25;5.00;;;4.60;;
51148;SDS011;37210;50.058;8.688;2023-04-07T14:26:54;4.85;;;4.45;;
51148;SDS011;37210;50.058;8.688;2023-04-07T14:29:21;5.63;;;5.13;;
51148;SDS011;37210;50.058;8.688;2023-04-07T14:31:49;5.03;;;4.63;;
51148;SDS011;37210;50.058;8.688;2023-04-07T14:34:16;4.97;;;4.50;;
51148;SDS011;37210;50.058;8.688;2023-04-07T14:36:51;4.13;;;3.83;;
51148;SDS011;37210;50.058;8.688;2023-04-07T14:39:20;4.30;;;4.00;;
51148;SDS011;37210;50.058;8.688;2023-04-07T14:41:48;3.95;;;3.60;;
51148;SDS011;37210;50.058;8.688;2023-04-07T14:44:17;3.50;;;3.20;;
51148;SDS011;37210;50.058;8.688;2023-04-07T14:46:45;3.97;;;3.67;;
51148;SDS011;37210;50.058;8.688;2023-04-07T14:49:13;4.47;;;4.10;;
51148;SDS011;37210;50.058;8.688;2023-04-07T14:51:41;4.75;;;4.22;;
51148;SDS011;37210;50.058;8.688;2023-04-07T14:54:09;4.60;;;4.22;;
51148;SDS011;37210;50.058;8.688;2023-04-07T14:56:37;4.45;;;4.05;;